createdAt,value
2023-01-17T00:00:59.602Z,-11.10
2023-01-17T00:03:30.962Z,-11.10
2023-01-17T00:06:17.915Z,-11.20
2023-01-17T00:09:05.034Z,-11.30
2023-01-17T00:11:35.737Z,-11.50
2023-01-17T00:14:06.198Z,-11.70
2023-01-17T00:16:38.035Z,-11.80
2023-01-17T00:19:25.604Z,-11.90
2023-01-17T00:22:12.990Z,-12.00
2023-01-17T00:25:00.037Z,-12.10
2023-01-17T00:27:28.809Z,-12.20
2023-01-17T00:29:58.150Z,-12.30
2023-01-17T00:32:28.412Z,-12.10
2023-01-17T00:34:57.060Z,-12.20
2023-01-17T00:37:25.476Z,-12.20
2023-01-17T00:39:53.954Z,-12.20
2023-01-17T00:42:22.441Z,-12.30
2023-01-17T00:45:09.790Z,-12.40
2023-01-17T00:47:58.985Z,-12.40
2023-01-17T00:50:45.930Z,-12.50
2023-01-17T00:53:32.988Z,-12.30
2023-01-17T00:56:21.943Z,-12.20
2023-01-17T00:59:11.289Z,-12.10
2023-01-17T01:01:58.582Z,-12.00
2023-01-17T01:04:47.042Z,-12.10
2023-01-17T01:07:34.181Z,-12.30
2023-01-17T01:10:21.444Z,-12.50
2023-01-17T01:13:08.563Z,-12.70
2023-01-17T01:15:55.406Z,-12.90
2023-01-17T01:18:42.306Z,-13.10
2023-01-17T01:21:30.654Z,-13.30
2023-01-17T01:24:17.572Z,-13.40
2023-01-17T01:27:04.661Z,-13.40
2023-01-17T01:29:51.964Z,-13.50
2023-01-17T01:32:39.120Z,-13.60
2023-01-17T01:35:09.983Z,-13.60
2023-01-17T01:37:42.159Z,-13.60
2023-01-17T01:40:14.739Z,-13.50
2023-01-17T01:42:52.500Z,-13.50
2023-01-17T01:45:24.220Z,-13.60
2023-01-17T01:47:59.240Z,-13.60
2023-01-17T01:50:33.708Z,-13.70
2023-01-17T01:53:08.530Z,-13.80
2023-01-17T01:55:44.286Z,-13.80
2023-01-17T01:58:18.212Z,-13.80
2023-01-17T02:00:50.488Z,-13.90
2023-01-17T02:03:24.467Z,-14.10
2023-01-17T02:05:55.343Z,-14.20
2023-01-17T02:08:27.736Z,-14.20
2023-01-17T02:10:59.351Z,-14.20
2023-01-17T02:13:30.427Z,-14.20
2023-01-17T02:16:05.320Z,-14.20
2023-01-17T02:18:48.416Z,-14.10
2023-01-17T02:21:30.548Z,-14.20
2023-01-17T02:24:28.120Z,-14.10
2023-01-17T02:27:04.506Z,-14.00
2023-01-17T02:30:24.722Z,-13.90
2023-01-17T02:33:08.859Z,-13.90
2023-01-17T02:35:45.192Z,-13.90
2023-01-17T02:38:32.497Z,-14.00
2023-01-17T02:41:08.514Z,-14.10
2023-01-17T02:43:40.246Z,-14.20
2023-01-17T02:46:10.401Z,-14.20
2023-01-17T02:48:42.350Z,-14.30
2023-01-17T02:51:30.863Z,-14.40
2023-01-17T02:54:14.429Z,-14.50
2023-01-17T02:56:54.400Z,-14.30
2023-01-17T02:59:43.132Z,-14.20
2023-01-17T03:02:19.819Z,-14.10
2023-01-17T03:04:54.476Z,-14.10
2023-01-17T03:07:28.179Z,-14.20
2023-01-17T03:10:01.359Z,-14.20
2023-01-17T03:12:32.790Z,-14.30
2023-01-17T03:15:02.915Z,-14.40
2023-01-17T03:17:35.518Z,-14.30
2023-01-17T03:20:07.921Z,-14.30
2023-01-17T03:22:38.024Z,-14.20
2023-01-17T03:25:08.878Z,-14.30
2023-01-17T03:27:39.285Z,-14.40
2023-01-17T03:30:10.898Z,-14.50
2023-01-17T03:32:40.980Z,-14.50
2023-01-17T03:35:13.077Z,-14.60
2023-01-17T03:37:43.377Z,-14.80
2023-01-17T03:40:14.391Z,-14.90
2023-01-17T03:42:44.763Z,-14.90
2023-01-17T03:45:15.140Z,-15.00
2023-01-17T03:47:45.228Z,-15.00
2023-01-17T03:50:17.254Z,-15.00
2023-01-17T03:52:47.392Z,-15.00
2023-01-17T03:55:17.638Z,-15.00
2023-01-17T03:57:47.809Z,-15.10
2023-01-17T04:00:18.654Z,-15.20
2023-01-17T04:02:49.070Z,-15.20
2023-01-17T04:05:21.182Z,-15.40
2023-01-17T04:07:51.803Z,-15.60
2023-01-17T04:10:22.102Z,-15.70
2023-01-17T04:12:52.219Z,-15.80
2023-01-17T04:15:22.398Z,-15.90
2023-01-17T04:17:52.767Z,-15.90
2023-01-17T04:20:39.292Z,-15.80
2023-01-17T04:23:09.734Z,-15.90
2023-01-17T04:25:40.166Z,-15.90
2023-01-17T04:28:10.311Z,-15.90
2023-01-17T04:30:40.502Z,-15.90
2023-01-17T04:33:10.595Z,-15.70
2023-01-17T04:35:42.609Z,-15.70
2023-01-17T04:38:12.820Z,-15.60
2023-01-17T04:40:42.980Z,-15.50
2023-01-17T04:43:13.333Z,-15.40
2023-01-17T04:45:43.497Z,-15.40
2023-01-17T04:48:14.345Z,-15.40
2023-01-17T04:50:46.505Z,-15.50
2023-01-17T04:53:16.593Z,-15.70
2023-01-17T04:55:48.387Z,-15.70
2023-01-17T04:58:18.603Z,-15.50
2023-01-17T05:00:51.640Z,-15.20
2023-01-17T05:03:22.461Z,-15.00
2023-01-17T05:05:54.293Z,-14.80
2023-01-17T05:08:24.419Z,-14.80
2023-01-17T05:10:54.738Z,-14.80
2023-01-17T05:13:24.967Z,-14.80
2023-01-17T05:15:55.234Z,-14.90
2023-01-17T05:18:25.425Z,-15.10
2023-01-17T05:20:57.188Z,-15.20
2023-01-17T05:23:27.468Z,-15.30
2023-01-17T05:25:58.225Z,-15.40
2023-01-17T05:28:28.459Z,-15.50
2023-01-17T05:30:58.634Z,-15.50
2023-01-17T05:33:28.806Z,-15.60
2023-01-17T05:36:00.661Z,-15.70
2023-01-17T05:38:30.789Z,-15.70
2023-01-17T05:41:03.446Z,-15.70
2023-01-17T05:43:33.729Z,-15.70
2023-01-17T05:46:04.265Z,-15.80
2023-01-17T05:48:34.364Z,-15.80
2023-01-17T05:51:06.250Z,-16.00
2023-01-17T05:53:36.490Z,-16.00
2023-01-17T05:56:06.858Z,-16.00
2023-01-17T05:58:36.928Z,-16.10
2023-01-17T06:01:07.144Z,-16.10
2023-01-17T06:03:37.605Z,-16.20
2023-01-17T06:06:09.793Z,-16.20
2023-01-17T06:08:39.844Z,-16.30
2023-01-17T06:11:09.983Z,-16.20
2023-01-17T06:13:40.432Z,-16.10
2023-01-17T06:16:11.501Z,-15.90
2023-01-17T06:18:41.701Z,-15.60
2023-01-17T06:21:13.596Z,-15.20
2023-01-17T06:23:43.819Z,-14.90
2023-01-17T06:26:14.680Z,-14.80
2023-01-17T06:28:44.751Z,-14.70
2023-01-17T06:31:14.969Z,-14.70
2023-01-17T06:33:45.124Z,-14.80
2023-01-17T06:36:16.893Z,-15.00
2023-01-17T06:38:47.034Z,-15.10
2023-01-17T06:41:17.158Z,-15.30
2023-01-17T06:43:47.776Z,-15.30
2023-01-17T06:46:18.237Z,-15.40
2023-01-17T06:48:49.400Z,-15.40
2023-01-17T06:51:21.479Z,-15.40
2023-01-17T06:53:51.707Z,-15.30
2023-01-17T06:56:21.879Z,-15.30
2023-01-17T06:58:52.456Z,-15.20
2023-01-17T07:01:22.709Z,-15.20
2023-01-17T07:03:53.078Z,-15.20
2023-01-17T07:06:29.302Z,-15.30
2023-01-17T07:08:59.671Z,-15.50
2023-01-17T07:11:30.183Z,-15.50
2023-01-17T07:14:00.394Z,-15.60
2023-01-17T07:16:30.775Z,-15.60
2023-01-17T07:19:00.890Z,-15.70
2023-01-17T07:21:32.620Z,-15.70
2023-01-17T07:24:02.789Z,-15.70
2023-01-17T07:26:32.964Z,-15.70
2023-01-17T07:29:03.069Z,-15.70
2023-01-17T07:31:34.781Z,-15.70
2023-01-17T07:34:05.204Z,-15.50
2023-01-17T07:36:37.117Z,-15.40
2023-01-17T07:39:07.263Z,-15.30
2023-01-17T07:41:41.850Z,-15.20
2023-01-17T07:44:13.353Z,-15.20
2023-01-17T07:46:43.547Z,-15.10
2023-01-17T07:49:15.145Z,-15.20
2023-01-17T07:51:48.565Z,-15.30
2023-01-17T07:54:18.701Z,-15.30
2023-01-17T07:56:49.131Z,-15.40
2023-01-17T07:59:19.799Z,-15.40
2023-01-17T08:01:50.031Z,-15.40
2023-01-17T08:04:20.169Z,-15.40
2023-01-17T08:06:52.451Z,-15.50
2023-01-17T08:09:22.572Z,-15.60
2023-01-17T08:11:52.674Z,-15.60
2023-01-17T08:14:22.885Z,-15.70
2023-01-17T08:16:53.345Z,-15.70
2023-01-17T08:19:23.520Z,-15.70
2023-01-17T08:21:55.210Z,-15.70
2023-01-17T08:24:26.398Z,-15.70
2023-01-17T08:26:57.044Z,-15.70
2023-01-17T08:29:27.188Z,-15.80
2023-01-17T08:31:57.325Z,-15.80
2023-01-17T08:34:27.797Z,-15.90
2023-01-17T08:36:59.720Z,-15.80
2023-01-17T08:39:29.861Z,-15.90
2023-01-17T08:42:00.009Z,-15.90
2023-01-17T08:44:30.282Z,-15.90
2023-01-17T08:47:00.594Z,-16.00
2023-01-17T08:49:31.043Z,-16.00
2023-01-17T08:52:02.728Z,-16.10
2023-01-17T08:54:32.821Z,-16.10
2023-01-17T08:57:04.044Z,-16.20
2023-01-17T08:59:34.125Z,-16.20
2023-01-17T09:02:07.391Z,-16.10
2023-01-17T09:04:37.768Z,-16.10
2023-01-17T09:07:09.935Z,-16.00
2023-01-17T09:09:40.018Z,-16.00
2023-01-17T09:12:10.255Z,-16.10
2023-01-17T09:14:40.662Z,-16.20
2023-01-17T09:17:11.989Z,-16.30
2023-01-17T09:19:47.982Z,-16.40
2023-01-17T09:22:19.721Z,-16.40
2023-01-17T09:24:50.293Z,-16.50
2023-01-17T09:27:21.439Z,-16.60
2023-01-17T09:29:51.614Z,-16.60
2023-01-17T09:32:21.776Z,-16.60
2023-01-17T09:34:51.837Z,-16.70
2023-01-17T09:37:23.747Z,-16.70
2023-01-17T09:39:53.837Z,-16.60
2023-01-17T09:42:30.130Z,-16.70
2023-01-17T09:45:01.307Z,-16.70
2023-01-17T09:47:39.898Z,-16.70
2023-01-17T09:50:23.443Z,-16.70
2023-01-17T09:53:01.390Z,-16.70
2023-01-17T09:55:37.162Z,-16.50
2023-01-17T09:58:13.047Z,-16.50
2023-01-17T10:00:56.212Z,-16.60
2023-01-17T10:03:46.099Z,-16.60
2023-01-17T10:06:46.220Z,-16.60
2023-01-17T10:09:41.274Z,-16.50
2023-01-17T10:12:24.579Z,-16.40
2023-01-17T10:15:07.883Z,-16.30
2023-01-17T10:17:48.102Z,-16.20
2023-01-17T10:20:34.855Z,-16.10
2023-01-17T10:23:22.625Z,-16.10
2023-01-17T10:25:56.813Z,-16.10
2023-01-17T10:28:33.121Z,-16.20
2023-01-17T10:31:07.259Z,-16.20
2023-01-17T10:33:43.661Z,-16.20
2023-01-17T10:36:22.915Z,-16.30
2023-01-17T10:38:56.022Z,-16.20
2023-01-17T10:41:31.995Z,-16.00
2023-01-17T10:44:14.125Z,-15.80
2023-01-17T10:46:49.596Z,-15.60
2023-01-17T10:49:22.203Z,-15.60
2023-01-17T10:52:05.516Z,-15.60
2023-01-17T10:54:46.833Z,-15.70
2023-01-17T10:57:22.452Z,-15.70
2023-01-17T10:59:53.317Z,-15.80
2023-01-17T11:02:27.915Z,-15.80
2023-01-17T11:04:59.842Z,-15.80
2023-01-17T11:07:31.535Z,-15.90
2023-01-17T11:10:02.098Z,-15.90
2023-01-17T11:12:46.336Z,-15.90
2023-01-17T11:15:26.578Z,-15.80
2023-01-17T11:18:05.126Z,-15.90
2023-01-17T11:20:38.238Z,-15.80
2023-01-17T11:23:14.920Z,-15.80
2023-01-17T11:25:52.517Z,-15.80
2023-01-17T11:28:27.167Z,-15.70
2023-01-17T11:30:58.921Z,-15.80
2023-01-17T11:33:45.685Z,-15.70
2023-01-17T11:36:23.567Z,-15.80
2023-01-17T11:39:03.420Z,-15.60
2023-01-17T11:41:37.552Z,-15.50
2023-01-17T11:44:25.369Z,-15.40
2023-01-17T11:47:17.589Z,-15.20
2023-01-17T11:49:49.312Z,-15.20
2023-01-17T11:52:26.310Z,-15.30
2023-01-17T11:54:57.638Z,-15.40
2023-01-17T11:57:30.002Z,-15.40
2023-01-17T12:00:13.205Z,-15.40
2023-01-17T12:03:09.010Z,-15.40
2023-01-17T12:05:56.328Z,-15.40
2023-01-17T12:08:37.868Z,-15.40
2023-01-17T12:11:17.311Z,-15.30
2023-01-17T12:14:03.065Z,-15.40
2023-01-17T12:16:47.376Z,-15.30
2023-01-17T12:19:29.180Z,-15.30
2023-01-17T12:22:10.344Z,-15.30
2023-01-17T12:25:02.571Z,-15.20
2023-01-17T12:27:42.709Z,-15.20
2023-01-17T12:30:33.244Z,-15.10
2023-01-17T12:33:16.392Z,-15.10
2023-01-17T12:35:51.310Z,-15.10
2023-01-17T12:38:33.029Z,-15.10
2023-01-17T12:41:10.304Z,-15.10
2023-01-17T12:43:43.629Z,-15.00
2023-01-17T12:46:21.615Z,-14.90
2023-01-17T12:48:56.601Z,-14.80
2023-01-17T12:51:30.710Z,-14.70
2023-01-17T12:54:04.997Z,-14.40
2023-01-17T12:56:39.790Z,-14.20
2023-01-17T12:59:16.410Z,-13.90
2023-01-17T13:01:58.221Z,-13.70
2023-01-17T13:04:36.322Z,-13.50
2023-01-17T13:07:16.175Z,-13.40
2023-01-17T13:09:52.488Z,-13.20
2023-01-17T13:12:24.909Z,-13.10
2023-01-17T13:14:55.376Z,-13.00
2023-01-17T13:17:37.123Z,-12.90
2023-01-17T13:20:18.206Z,-12.80
2023-01-17T13:22:49.432Z,-12.70
2023-01-17T13:25:35.516Z,-12.60
2023-01-17T13:28:15.862Z,-12.50
2023-01-17T13:30:58.558Z,-12.40
2023-01-17T13:33:47.839Z,-12.40
2023-01-17T13:36:32.446Z,-12.20
2023-01-17T13:39:30.426Z,-12.00
2023-01-17T13:42:13.122Z,-11.90
2023-01-17T13:44:43.297Z,-11.80
2023-01-17T13:47:42.539Z,-11.70
2023-01-17T13:50:50.197Z,-11.50
2023-01-17T13:53:51.696Z,-11.40
2023-01-17T13:56:31.928Z,-11.30
2023-01-17T13:59:05.686Z,-11.20
2023-01-17T14:01:55.380Z,-11.10
2023-01-17T14:04:27.365Z,-11.00
2023-01-17T14:07:04.483Z,-11.00
2023-01-17T14:09:44.515Z,-10.90
2023-01-17T14:12:30.307Z,-10.90
2023-01-17T14:15:03.079Z,-10.90
2023-01-17T14:18:00.980Z,-10.80
2023-01-17T14:20:53.366Z,-10.70
2023-01-17T14:23:56.141Z,-10.60
2023-01-17T14:26:45.643Z,-10.60
2023-01-17T14:29:52.805Z,-10.60
2023-01-17T14:32:25.237Z,-10.50
2023-01-17T14:34:56.052Z,-10.50
2023-01-17T14:37:45.548Z,-10.40
2023-01-17T14:40:24.499Z,-10.30
2023-01-17T14:43:01.810Z,-10.20
2023-01-17T14:45:33.561Z,-10.10
2023-01-17T14:48:06.735Z,-9.90
2023-01-17T14:50:39.962Z,-9.80
2023-01-17T14:53:28.723Z,-9.70
2023-01-17T14:56:02.280Z,-9.70
2023-01-17T14:58:35.508Z,-9.60
2023-01-17T15:01:09.569Z,-9.40
2023-01-17T15:03:46.174Z,-9.40
2023-01-17T15:06:20.530Z,-9.20
2023-01-17T15:08:52.471Z,-9.20
2023-01-17T15:11:35.175Z,-9.10
2023-01-17T15:14:08.517Z,-9.00
2023-01-17T15:16:41.710Z,-8.90
2023-01-17T15:19:17.209Z,-8.80
2023-01-17T15:21:51.014Z,-8.70
2023-01-17T15:24:24.393Z,-8.60
2023-01-17T15:26:55.274Z,-8.50
2023-01-17T15:29:30.278Z,-8.30
2023-01-17T15:32:01.942Z,-8.10
2023-01-17T15:34:33.868Z,-8.00
2023-01-17T15:37:08.710Z,-7.90
2023-01-17T15:39:41.795Z,-7.80
2023-01-17T15:42:24.132Z,-7.70
2023-01-17T15:44:58.936Z,-7.60
2023-01-17T15:47:34.445Z,-7.60
2023-01-17T15:50:26.728Z,-7.40
2023-01-17T15:52:58.972Z,-7.30
2023-01-17T15:55:33.667Z,-7.20
2023-01-17T15:58:04.554Z,-6.90
2023-01-17T16:00:42.648Z,-6.60
2023-01-17T16:03:26.316Z,-6.40
2023-01-17T16:05:58.506Z,-6.10
2023-01-17T16:08:34.821Z,-5.70
2023-01-17T16:11:07.275Z,-5.50
2023-01-17T16:13:48.079Z,-5.20
2023-01-17T16:16:23.443Z,-4.90
2023-01-17T16:19:02.250Z,-4.80
2023-01-17T16:21:33.836Z,-4.40
2023-01-17T16:26:48.075Z,-3.80
2023-01-17T16:29:18.211Z,-3.80
2023-01-17T16:31:48.388Z,-4.10
2023-01-17T16:34:18.737Z,-4.20
2023-01-17T16:36:48.857Z,-4.10
2023-01-17T16:39:18.969Z,-4.00
2023-01-17T16:41:50.699Z,-4.10
2023-01-17T16:44:20.761Z,-4.00
2023-01-17T16:46:50.861Z,-3.90
2023-01-17T16:49:21.306Z,-3.80
2023-01-17T16:51:52.467Z,-3.80
2023-01-17T16:54:22.686Z,-3.60
2023-01-17T16:56:54.608Z,-3.50
2023-01-17T16:59:26.077Z,-3.40
2023-01-17T17:01:56.359Z,-3.30
2023-01-17T17:04:26.464Z,-3.00
2023-01-17T17:06:57.746Z,-2.70
2023-01-17T17:09:28.023Z,-2.60
2023-01-17T17:11:59.897Z,-2.60
2023-01-17T17:14:30.174Z,-2.40
2023-01-17T17:17:03.560Z,-2.40
2023-01-17T17:19:34.613Z,-2.20
2023-01-17T17:22:08.223Z,-2.10
2023-01-17T17:24:38.825Z,-2.30
2023-01-17T17:27:10.757Z,-2.20
2023-01-17T17:29:41.882Z,-2.00
2023-01-17T17:32:12.667Z,-1.80
2023-01-17T17:34:42.799Z,-1.60
2023-01-17T17:37:12.958Z,-1.60
2023-01-17T17:39:43.029Z,-1.60
2023-01-17T17:42:16.154Z,-1.50
2023-01-17T17:44:46.265Z,-1.50
2023-01-17T17:47:16.806Z,-1.50
2023-01-17T17:49:46.949Z,-1.60
2023-01-17T17:52:17.345Z,-1.80
2023-01-17T17:54:47.438Z,-2.10
2023-01-17T17:57:19.205Z,-2.30
2023-01-17T17:59:49.282Z,-2.70
2023-01-17T18:02:19.476Z,-3.00
2023-01-17T18:04:49.596Z,-3.20
2023-01-17T18:07:20.217Z,-3.20
2023-01-17T18:09:50.288Z,-3.40
2023-01-17T18:12:21.994Z,-3.50
2023-01-17T18:14:52.481Z,-3.50
2023-01-17T18:17:22.603Z,-3.50
2023-01-17T18:19:53.584Z,-3.70
2023-01-17T18:22:23.763Z,-3.80
2023-01-17T18:24:54.359Z,-3.80
2023-01-17T18:27:26.092Z,-3.80
2023-01-17T18:29:56.191Z,-3.70
2023-01-17T18:32:26.620Z,-3.50
2023-01-17T18:34:56.681Z,-3.40
2023-01-17T18:37:26.869Z,-3.40
2023-01-17T18:39:57.464Z,-3.40
2023-01-17T18:42:29.271Z,-3.40
2023-01-17T18:44:59.448Z,-3.50
2023-01-17T18:47:31.986Z,-3.50
2023-01-17T18:50:02.119Z,-3.50
2023-01-17T18:52:32.227Z,-3.60
2023-01-17T18:55:02.433Z,-3.70
2023-01-17T18:57:34.188Z,-3.50
2023-01-17T19:00:04.636Z,-3.50
2023-01-17T19:02:34.765Z,-3.40
2023-01-17T19:05:06.379Z,-3.50
2023-01-17T19:07:36.684Z,-3.50
2023-01-17T19:10:07.356Z,-3.40
2023-01-17T19:12:39.053Z,-3.40
2023-01-17T19:15:10.438Z,-3.50
2023-01-17T19:17:40.744Z,-3.40
2023-01-17T19:20:13.823Z,-3.50
2023-01-17T19:22:44.200Z,-3.50
2023-01-17T19:25:14.413Z,-3.50
2023-01-17T19:27:46.671Z,-3.70
2023-01-17T19:30:17.197Z,-3.70
2023-01-17T19:32:47.519Z,-3.70
2023-01-17T19:35:18.167Z,-3.80
2023-01-17T19:37:48.622Z,-3.70
2023-01-17T19:40:20.310Z,-3.60
2023-01-17T19:42:53.263Z,-3.50
2023-01-17T19:45:23.868Z,-3.60
2023-01-17T19:47:54.346Z,-3.70
2023-01-17T19:50:24.583Z,-3.70
2023-01-17T19:52:54.707Z,-3.70
2023-01-17T19:55:26.552Z,-3.60
2023-01-17T19:57:58.555Z,-3.60
2023-01-17T20:00:30.334Z,-3.60
2023-01-17T20:03:01.040Z,-3.60
2023-01-17T20:05:32.929Z,-3.50
2023-01-17T20:08:03.126Z,-3.50
2023-01-17T20:10:33.341Z,-3.40
2023-01-17T20:13:06.087Z,-3.40
2023-01-17T20:15:37.206Z,-3.40
2023-01-17T20:18:07.510Z,-3.40
2023-01-17T20:20:56.559Z,-3.50
2023-01-17T20:23:27.678Z,-3.50
2023-01-17T20:25:59.703Z,-3.50
2023-01-17T20:28:33.404Z,-3.70
2023-01-17T20:31:08.218Z,-3.70
2023-01-17T20:33:38.726Z,-3.70
2023-01-17T20:36:11.417Z,-3.60
2023-01-17T20:38:49.312Z,-3.60
2023-01-17T20:41:20.786Z,-3.50
2023-01-17T20:43:54.531Z,-3.50
2023-01-17T20:46:25.787Z,-3.60
2023-01-17T20:48:58.495Z,-3.60
2023-01-17T20:51:29.834Z,-3.50
2023-01-17T20:54:03.289Z,-3.60
2023-01-17T20:56:35.508Z,-3.60
2023-01-17T20:59:10.038Z,-3.60
2023-01-17T21:01:40.906Z,-3.50
2023-01-17T21:04:11.636Z,-3.60
2023-01-17T21:06:42.915Z,-3.60
2023-01-17T21:09:15.177Z,-3.70
2023-01-17T21:11:45.408Z,-3.70
2023-01-17T21:14:17.468Z,-3.80
2023-01-17T21:16:47.626Z,-3.80
2023-01-17T21:19:18.282Z,-3.80
2023-01-17T21:21:49.069Z,-3.80
2023-01-17T21:24:24.492Z,-3.80
2023-01-17T21:26:54.676Z,-3.80
2023-01-17T21:29:29.843Z,-3.80
2023-01-17T21:31:59.975Z,-3.80
2023-01-17T21:34:32.653Z,-3.80
2023-01-17T21:37:03.005Z,-3.80
2023-01-17T21:39:33.256Z,-3.80
2023-01-17T21:42:03.361Z,-3.70
2023-01-17T21:44:37.119Z,-3.80
2023-01-17T21:47:07.500Z,-3.80
2023-01-17T21:49:37.600Z,-3.90
2023-01-17T21:52:23.070Z,-3.90
2023-01-17T21:55:10.434Z,-3.90
2023-01-17T21:57:58.087Z,-3.90
2023-01-17T22:00:30.086Z,-3.90
2023-01-17T22:03:00.325Z,-3.90
2023-01-17T22:05:30.593Z,-3.90
2023-01-17T22:08:16.446Z,-3.90
2023-01-17T22:10:49.577Z,-3.80
2023-01-17T22:13:20.926Z,-3.80
2023-01-17T22:16:01.495Z,-3.80
2023-01-17T22:18:31.888Z,-3.70
2023-01-17T22:21:07.274Z,-3.80
2023-01-17T22:23:37.771Z,-3.80
2023-01-17T22:26:09.503Z,-3.80
2023-01-17T22:28:40.513Z,-3.80
2023-01-17T22:31:14.630Z,-3.90
2023-01-17T22:33:46.347Z,-3.90
2023-01-17T22:36:17.399Z,-3.90
2023-01-17T22:38:47.669Z,-3.90
2023-01-17T22:41:20.912Z,-3.90
2023-01-17T22:43:52.580Z,-3.90
2023-01-17T22:46:25.700Z,-3.90
2023-01-17T22:48:56.686Z,-3.90
2023-01-17T22:51:28.920Z,-3.90
2023-01-17T22:54:00.761Z,-3.80
2023-01-17T22:56:32.609Z,-3.80
2023-01-17T22:59:03.712Z,-3.80
2023-01-17T23:01:35.792Z,-3.80
2023-01-17T23:04:06.932Z,-3.80
2023-01-17T23:06:38.511Z,-3.80
2023-01-17T23:09:11.120Z,-3.70
2023-01-17T23:11:45.679Z,-3.70
2023-01-17T23:14:18.758Z,-3.70
2023-01-17T23:17:08.579Z,-3.70
2023-01-17T23:19:40.225Z,-3.70
2023-01-17T23:22:18.000Z,-3.70
2023-01-17T23:24:53.596Z,-3.70
2023-01-17T23:27:43.647Z,-3.70
2023-01-17T23:30:15.971Z,-3.70
2023-01-17T23:32:50.271Z,-3.70
2023-01-17T23:35:22.168Z,-3.70
2023-01-17T23:38:09.545Z,-3.70
2023-01-17T23:40:40.690Z,-3.60
2023-01-17T23:43:26.505Z,-3.60
2023-01-17T23:45:57.506Z,-3.60
2023-01-17T23:48:30.275Z,-3.70
2023-01-17T23:51:01.556Z,-3.60
2023-01-17T23:53:31.926Z,-3.60
2023-01-17T23:56:09.508Z,-3.60
2023-01-17T23:58:40.005Z,-3.60
